sensor_id;sensor_type;location;lat;lon;timestamp;P1;durP1;ratioP1;P2;durP2;ratioP2
67564;SDS011;54393;53.556;49.216;2022-11-25T00:01:13;3.75;;;3.45;;
67564;SDS011;54393;53.556;49.216;2022-11-25T00:03:44;4.20;;;3.85;;
67564;SDS011;54393;53.556;49.216;2022-11-25T00:06:18;3.70;;;3.40;;
67564;SDS011;54393;53.556;49.216;2022-11-25T00:08:47;3.62;;;3.33;;
67564;SDS011;54393;53.556;49.216;2022-11-25T00:11:15;3.90;;;3.60;;
67564;SDS011;54393;53.556;49.216;2022-11-25T00:13:42;3.90;;;3.60;;
67564;SDS011;54393;53.556;49.216;2022-11-25T00:16:11;3.92;;;3.62;;
67564;SDS011;54393;53.556;49.216;2022-11-25T00:18:39;4.05;;;3.50;;
67564;SDS011;54393;53.556;49.216;2022-11-25T00:21:09;3.62;;;3.33;;
67564;SDS011;54393;53.556;49.216;2022-11-25T00:23:37;4.15;;;3.85;;
67564;SDS011;54393;53.556;49.216;2022-11-25T00:26:07;3.78;;;3.47;;
67564;SDS011;54393;53.556;49.216;2022-11-25T00:28:35;4.20;;;3.90;;
67564;SDS011;54393;53.556;49.216;2022-11-25T00:31:05;4.18;;;3.80;;
67564;SDS011;54393;53.556;49.216;2022-11-25T00:33:32;4.05;;;3.75;;
67564;SDS011;54393;53.556;49.216;2022-11-25T00:35:59;3.37;;;3.17;;
67564;SDS011;54393;53.556;49.216;2022-11-25T00:38:26;4.25;;;3.87;;
67564;SDS011;54393;53.556;49.216;2022-11-25T00:40:53;4.07;;;3.78;;
67564;SDS011;54393;53.556;49.216;2022-11-25T00:43:38;3.97;;;3.67;;
67564;SDS011;54393;53.556;49.216;2022-11-25T00:46:25;4.20;;;3.85;;
67564;SDS011;54393;53.556;49.216;2022-11-25T00:48:51;3.72;;;3.42;;
67564;SDS011;54393;53.556;49.216;2022-11-25T00:51:18;4.50;;;4.10;;
67564;SDS011;54393;53.556;49.216;2022-11-25T00:53:44;3.70;;;3.40;;
67564;SDS011;54393;53.556;49.216;2022-11-25T00:56:10;3.75;;;3.50;;
67564;SDS011;54393;53.556;49.216;2022-11-25T00:58:37;4.57;;;4.18;;
67564;SDS011;54393;53.556;49.216;2022-11-25T01:01:04;4.18;;;3.65;;
67564;SDS011;54393;53.556;49.216;2022-11-25T01:03:31;4.25;;;3.95;;
67564;SDS011;54393;53.556;49.216;2022-11-25T01:06:01;4.00;;;3.70;;
67564;SDS011;54393;53.556;49.216;2022-11-25T01:08:32;3.83;;;3.53;;
67564;SDS011;54393;53.556;49.216;2022-11-25T01:10:59;3.95;;;3.65;;
67564;SDS011;54393;53.556;49.216;2022-11-25T01:13:26;4.20;;;3.90;;
67564;SDS011;54393;53.556;49.216;2022-11-25T01:15:53;4.30;;;4.00;;
67564;SDS011;54393;53.556;49.216;2022-11-25T01:18:19;4.53;;;4.12;;
67564;SDS011;54393;53.556;49.216;2022-11-25T01:20:45;4.53;;;4.12;;
67564;SDS011;54393;53.556;49.216;2022-11-25T01:23:12;4.18;;;3.78;;
67564;SDS011;54393;53.556;49.216;2022-11-25T01:25:38;4.15;;;3.85;;
67564;SDS011;54393;53.556;49.216;2022-11-25T01:28:05;4.45;;;4.12;;
67564;SDS011;54393;53.556;49.216;2022-11-25T01:30:32;4.57;;;4.15;;
67564;SDS011;54393;53.556;49.216;2022-11-25T01:32:58;4.40;;;4.00;;
67564;SDS011;54393;53.556;49.216;2022-11-25T01:35:25;4.57;;;4.18;;
67564;SDS011;54393;53.556;49.216;2022-11-25T01:37:51;4.50;;;4.10;;
67564;SDS011;54393;53.556;49.216;2022-11-25T01:40:17;3.75;;;3.45;;
67564;SDS011;54393;53.556;49.216;2022-11-25T01:42:45;4.43;;;4.03;;
67564;SDS011;54393;53.556;49.216;2022-11-25T01:47:48;4.95;;;4.47;;
67564;SDS011;54393;53.556;49.216;2022-11-25T01:50:16;4.60;;;3.95;;
67564;SDS011;54393;53.556;49.216;2022-11-25T01:52:45;4.60;;;4.20;;
67564;SDS011;54393;53.556;49.216;2022-11-25T01:55:13;4.28;;;3.87;;
67564;SDS011;54393;53.556;49.216;2022-11-25T02:00:16;4.55;;;4.15;;
67564;SDS011;54393;53.556;49.216;2022-11-25T02:02:44;4.50;;;4.10;;
67564;SDS011;54393;53.556;49.216;2022-11-25T02:05:12;4.97;;;4.55;;
67564;SDS011;54393;53.556;49.216;2022-11-25T02:07:43;5.30;;;4.80;;
67564;SDS011;54393;53.556;49.216;2022-11-25T02:10:11;4.10;;;3.80;;
67564;SDS011;54393;53.556;49.216;2022-11-25T02:12:44;4.85;;;4.35;;
67564;SDS011;54393;53.556;49.216;2022-11-25T02:15:11;4.75;;;4.35;;
67564;SDS011;54393;53.556;49.216;2022-11-25T02:17:38;4.30;;;3.97;;
67564;SDS011;54393;53.556;49.216;2022-11-25T02:25:24;4.87;;;4.30;;
67564;SDS011;54393;53.556;49.216;2022-11-25T02:28:05;4.60;;;4.30;;
67564;SDS011;54393;53.556;49.216;2022-11-25T02:30:38;4.53;;;4.20;;
67564;SDS011;54393;53.556;49.216;2022-11-25T02:33:05;4.70;;;4.30;;
67564;SDS011;54393;53.556;49.216;2022-11-25T02:35:39;4.82;;;4.43;;
67564;SDS011;54393;53.556;49.216;2022-11-25T02:40:40;5.20;;;4.70;;
67564;SDS011;54393;53.556;49.216;2022-11-25T02:43:10;5.00;;;4.60;;
67564;SDS011;54393;53.556;49.216;2022-11-25T02:48:13;5.50;;;4.55;;
67564;SDS011;54393;53.556;49.216;2022-11-25T02:50:40;5.37;;;4.87;;
67564;SDS011;54393;53.556;49.216;2022-11-25T02:53:06;4.30;;;3.90;;
67564;SDS011;54393;53.556;49.216;2022-11-25T02:55:33;4.57;;;4.20;;
67564;SDS011;54393;53.556;49.216;2022-11-25T02:57:59;4.90;;;4.50;;
67564;SDS011;54393;53.556;49.216;2022-11-25T03:00:26;5.32;;;4.82;;
67564;SDS011;54393;53.556;49.216;2022-11-25T03:02:52;4.65;;;4.25;;
67564;SDS011;54393;53.556;49.216;2022-11-25T03:05:22;4.97;;;4.50;;
67564;SDS011;54393;53.556;49.216;2022-11-25T03:07:48;4.95;;;4.55;;
67564;SDS011;54393;53.556;49.216;2022-11-25T03:10:15;4.93;;;4.50;;
67564;SDS011;54393;53.556;49.216;2022-11-25T03:12:41;4.53;;;4.12;;
67564;SDS011;54393;53.556;49.216;2022-11-25T03:15:08;4.50;;;4.20;;
67564;SDS011;54393;53.556;49.216;2022-11-25T03:17:34;4.87;;;4.37;;
67564;SDS011;54393;53.556;49.216;2022-11-25T03:20:01;4.82;;;4.43;;
67564;SDS011;54393;53.556;49.216;2022-11-25T03:22:29;5.18;;;4.68;;
67564;SDS011;54393;53.556;49.216;2022-11-25T03:24:55;5.68;;;4.60;;
67564;SDS011;54393;53.556;49.216;2022-11-25T03:27:22;5.20;;;4.65;;
67564;SDS011;54393;53.556;49.216;2022-11-25T03:29:48;5.35;;;4.82;;
67564;SDS011;54393;53.556;49.216;2022-11-25T03:32:15;4.95;;;4.45;;
67564;SDS011;54393;53.556;49.216;2022-11-25T03:34:41;5.07;;;4.57;;
67564;SDS011;54393;53.556;49.216;2022-11-25T03:37:08;4.85;;;4.40;;
67564;SDS011;54393;53.556;49.216;2022-11-25T03:39:34;5.25;;;4.75;;
67564;SDS011;54393;53.556;49.216;2022-11-25T03:42:01;5.65;;;5.05;;
67564;SDS011;54393;53.556;49.216;2022-11-25T03:44:27;5.32;;;4.43;;
67564;SDS011;54393;53.556;49.216;2022-11-25T03:46:54;4.62;;;4.22;;
67564;SDS011;54393;53.556;49.216;2022-11-25T03:49:20;5.00;;;4.60;;
67564;SDS011;54393;53.556;49.216;2022-11-25T03:51:47;5.25;;;4.82;;
67564;SDS011;54393;53.556;49.216;2022-11-25T03:54:13;5.20;;;4.70;;
67564;SDS011;54393;53.556;49.216;2022-11-25T03:56:40;5.10;;;4.70;;
67564;SDS011;54393;53.556;49.216;2022-11-25T03:59:06;6.03;;;5.20;;
67564;SDS011;54393;53.556;49.216;2022-11-25T04:01:33;5.05;;;4.62;;
67564;SDS011;54393;53.556;49.216;2022-11-25T04:03:59;5.03;;;4.57;;
67564;SDS011;54393;53.556;49.216;2022-11-25T04:06:26;6.00;;;5.45;;
67564;SDS011;54393;53.556;49.216;2022-11-25T04:08:52;5.32;;;4.82;;
67564;SDS011;54393;53.556;49.216;2022-11-25T04:11:19;5.50;;;5.00;;
67564;SDS011;54393;53.556;49.216;2022-11-25T04:13:45;5.65;;;5.15;;
67564;SDS011;54393;53.556;49.216;2022-11-25T04:16:24;5.50;;;5.03;;
67564;SDS011;54393;53.556;49.216;2022-11-25T04:18:51;5.57;;;4.75;;
67564;SDS011;54393;53.556;49.216;2022-11-25T04:21:18;5.72;;;5.12;;
67564;SDS011;54393;53.556;49.216;2022-11-25T04:23:44;5.85;;;5.10;;
67564;SDS011;54393;53.556;49.216;2022-11-25T04:26:10;5.47;;;4.97;;
67564;SDS011;54393;53.556;49.216;2022-11-25T04:28:37;4.82;;;4.45;;
67564;SDS011;54393;53.556;49.216;2022-11-25T04:31:04;5.62;;;5.07;;
67564;SDS011;54393;53.556;49.216;2022-11-25T04:33:31;4.97;;;4.50;;
67564;SDS011;54393;53.556;49.216;2022-11-25T04:35:58;5.78;;;5.28;;
67564;SDS011;54393;53.556;49.216;2022-11-25T04:38:24;5.57;;;4.93;;
67564;SDS011;54393;53.556;49.216;2022-11-25T04:40:51;5.57;;;4.90;;
67564;SDS011;54393;53.556;49.216;2022-11-25T04:43:17;4.72;;;4.32;;
67564;SDS011;54393;53.556;49.216;2022-11-25T04:45:45;4.95;;;4.55;;
67564;SDS011;54393;53.556;49.216;2022-11-25T04:48:12;5.12;;;4.62;;
67564;SDS011;54393;53.556;49.216;2022-11-25T04:50:38;5.45;;;4.93;;
67564;SDS011;54393;53.556;49.216;2022-11-25T04:53:04;5.57;;;5.07;;
67564;SDS011;54393;53.556;49.216;2022-11-25T04:55:31;5.68;;;5.07;;
67564;SDS011;54393;53.556;49.216;2022-11-25T04:57:57;5.82;;;5.25;;
67564;SDS011;54393;53.556;49.216;2022-11-25T05:00:24;5.53;;;5.03;;
67564;SDS011;54393;53.556;49.216;2022-11-25T05:02:51;5.45;;;4.95;;
67564;SDS011;54393;53.556;49.216;2022-11-25T05:05:17;5.35;;;4.85;;
67564;SDS011;54393;53.556;49.216;2022-11-25T05:07:44;5.12;;;4.50;;
67564;SDS011;54393;53.556;49.216;2022-11-25T05:10:10;7.80;;;5.07;;
67564;SDS011;54393;53.556;49.216;2022-11-25T05:12:37;5.55;;;5.05;;
67564;SDS011;54393;53.556;49.216;2022-11-25T05:15:04;8.88;;;4.95;;
67564;SDS011;54393;53.556;49.216;2022-11-25T05:17:32;5.30;;;4.80;;
67564;SDS011;54393;53.556;49.216;2022-11-25T05:19:59;5.50;;;4.90;;
67564;SDS011;54393;53.556;49.216;2022-11-25T05:22:27;5.47;;;4.85;;
67564;SDS011;54393;53.556;49.216;2022-11-25T05:24:54;5.30;;;4.80;;
67564;SDS011;54393;53.556;49.216;2022-11-25T05:27:21;5.22;;;4.40;;
67564;SDS011;54393;53.556;49.216;2022-11-25T05:29:49;6.30;;;4.62;;
67564;SDS011;54393;53.556;49.216;2022-11-25T05:32:15;7.43;;;5.30;;
67564;SDS011;54393;53.556;49.216;2022-11-25T05:34:42;8.52;;;4.80;;
67564;SDS011;54393;53.556;49.216;2022-11-25T05:37:09;6.55;;;4.68;;
67564;SDS011;54393;53.556;49.216;2022-11-25T05:39:37;4.87;;;4.28;;
67564;SDS011;54393;53.556;49.216;2022-11-25T05:42:04;4.93;;;4.53;;
67564;SDS011;54393;53.556;49.216;2022-11-25T05:44:30;6.70;;;4.75;;
67564;SDS011;54393;53.556;49.216;2022-11-25T05:46:57;4.93;;;4.43;;
67564;SDS011;54393;53.556;49.216;2022-11-25T05:49:23;6.78;;;5.12;;
67564;SDS011;54393;53.556;49.216;2022-11-25T05:51:50;10.00;;;5.45;;
67564;SDS011;54393;53.556;49.216;2022-11-25T05:54:17;8.10;;;5.18;;
67564;SDS011;54393;53.556;49.216;2022-11-25T05:56:43;8.13;;;5.50;;
67564;SDS011;54393;53.556;49.216;2022-11-25T05:59:09;9.90;;;5.18;;
67564;SDS011;54393;53.556;49.216;2022-11-25T06:01:36;9.45;;;5.97;;
67564;SDS011;54393;53.556;49.216;2022-11-25T06:04:03;9.75;;;5.87;;
67564;SDS011;54393;53.556;49.216;2022-11-25T06:06:30;11.23;;;5.90;;
67564;SDS011;54393;53.556;49.216;2022-11-25T06:08:57;8.85;;;5.62;;
67564;SDS011;54393;53.556;49.216;2022-11-25T06:11:23;9.48;;;5.75;;
67564;SDS011;54393;53.556;49.216;2022-11-25T06:13:50;7.10;;;5.22;;
67564;SDS011;54393;53.556;49.216;2022-11-25T06:16:17;9.45;;;5.90;;
67564;SDS011;54393;53.556;49.216;2022-11-25T06:18:45;9.63;;;6.25;;
67564;SDS011;54393;53.556;49.216;2022-11-25T06:21:12;14.77;;;6.50;;
67564;SDS011;54393;53.556;49.216;2022-11-25T06:23:39;13.32;;;6.25;;
67564;SDS011;54393;53.556;49.216;2022-11-25T06:26:07;9.88;;;5.80;;
67564;SDS011;54393;53.556;49.216;2022-11-25T06:28:40;8.63;;;5.57;;
67564;SDS011;54393;53.556;49.216;2022-11-25T06:31:08;7.72;;;5.45;;
67564;SDS011;54393;53.556;49.216;2022-11-25T06:33:36;9.05;;;5.60;;
67564;SDS011;54393;53.556;49.216;2022-11-25T06:36:03;11.48;;;6.32;;
67564;SDS011;54393;53.556;49.216;2022-11-25T06:38:30;8.80;;;5.93;;
67564;SDS011;54393;53.556;49.216;2022-11-25T06:41:01;9.00;;;5.85;;
67564;SDS011;54393;53.556;49.216;2022-11-25T06:43:28;9.35;;;5.72;;
67564;SDS011;54393;53.556;49.216;2022-11-25T06:46:03;9.90;;;5.75;;
67564;SDS011;54393;53.556;49.216;2022-11-25T06:48:30;12.10;;;6.35;;
67564;SDS011;54393;53.556;49.216;2022-11-25T06:51:00;10.30;;;6.28;;
67564;SDS011;54393;53.556;49.216;2022-11-25T06:53:29;9.43;;;6.22;;
67564;SDS011;54393;53.556;49.216;2022-11-25T06:58:35;6.93;;;5.80;;
67564;SDS011;54393;53.556;49.216;2022-11-25T07:01:21;7.18;;;6.47;;
67564;SDS011;54393;53.556;49.216;2022-11-25T07:03:49;8.25;;;6.32;;
67564;SDS011;54393;53.556;49.216;2022-11-25T07:06:18;9.55;;;6.10;;
67564;SDS011;54393;53.556;49.216;2022-11-25T07:08:45;8.00;;;6.55;;
67564;SDS011;54393;53.556;49.216;2022-11-25T07:11:15;9.30;;;6.75;;
67564;SDS011;54393;53.556;49.216;2022-11-25T07:13:42;13.02;;;6.97;;
67564;SDS011;54393;53.556;49.216;2022-11-25T07:16:09;12.15;;;7.35;;
67564;SDS011;54393;53.556;49.216;2022-11-25T07:18:37;14.05;;;7.05;;
67564;SDS011;54393;53.556;49.216;2022-11-25T07:21:06;11.68;;;7.28;;
67564;SDS011;54393;53.556;49.216;2022-11-25T07:23:36;9.30;;;6.85;;
67564;SDS011;54393;53.556;49.216;2022-11-25T07:26:13;12.30;;;7.57;;
67564;SDS011;54393;53.556;49.216;2022-11-25T07:28:41;12.82;;;8.25;;
67564;SDS011;54393;53.556;49.216;2022-11-25T07:33:41;12.30;;;7.78;;
67564;SDS011;54393;53.556;49.216;2022-11-25T07:36:08;16.52;;;8.68;;
67564;SDS011;54393;53.556;49.216;2022-11-25T07:38:36;11.55;;;8.55;;
67564;SDS011;54393;53.556;49.216;2022-11-25T07:41:10;15.85;;;9.32;;
67564;SDS011;54393;53.556;49.216;2022-11-25T07:43:37;12.07;;;9.65;;
67564;SDS011;54393;53.556;49.216;2022-11-25T07:46:08;18.70;;;9.85;;
67564;SDS011;54393;53.556;49.216;2022-11-25T07:48:40;14.27;;;10.32;;
67564;SDS011;54393;53.556;49.216;2022-11-25T07:51:14;15.00;;;10.63;;
67564;SDS011;54393;53.556;49.216;2022-11-25T07:53:45;14.68;;;10.70;;
67564;SDS011;54393;53.556;49.216;2022-11-25T07:56:12;15.00;;;11.52;;
67564;SDS011;54393;53.556;49.216;2022-11-25T07:58:39;12.57;;;10.57;;
67564;SDS011;54393;53.556;49.216;2022-11-25T08:01:06;19.02;;;11.25;;
67564;SDS011;54393;53.556;49.216;2022-11-25T08:03:34;14.73;;;11.80;;
67564;SDS011;54393;53.556;49.216;2022-11-25T08:06:02;21.77;;;13.02;;
67564;SDS011;54393;53.556;49.216;2022-11-25T08:08:34;16.50;;;12.23;;
67564;SDS011;54393;53.556;49.216;2022-11-25T08:11:00;17.15;;;12.45;;
67564;SDS011;54393;53.556;49.216;2022-11-25T08:13:34;24.98;;;15.25;;
67564;SDS011;54393;53.556;49.216;2022-11-25T08:16:01;23.62;;;15.65;;
67564;SDS011;54393;53.556;49.216;2022-11-25T08:18:28;21.60;;;14.95;;
67564;SDS011;54393;53.556;49.216;2022-11-25T08:21:00;29.12;;;15.98;;
67564;SDS011;54393;53.556;49.216;2022-11-25T08:23:29;29.77;;;16.23;;
67564;SDS011;54393;53.556;49.216;2022-11-25T08:25:56;24.45;;;16.23;;
67564;SDS011;54393;53.556;49.216;2022-11-25T08:28:23;25.33;;;16.25;;
67564;SDS011;54393;53.556;49.216;2022-11-25T08:30:49;23.98;;;16.65;;
67564;SDS011;54393;53.556;49.216;2022-11-25T08:33:16;23.15;;;15.65;;
67564;SDS011;54393;53.556;49.216;2022-11-25T08:35:42;24.10;;;15.68;;
67564;SDS011;54393;53.556;49.216;2022-11-25T08:38:10;20.48;;;15.68;;
67564;SDS011;54393;53.556;49.216;2022-11-25T08:40:36;18.55;;;14.25;;
67564;SDS011;54393;53.556;49.216;2022-11-25T08:43:03;25.12;;;15.82;;
67564;SDS011;54393;53.556;49.216;2022-11-25T08:45:30;24.05;;;15.18;;
67564;SDS011;54393;53.556;49.216;2022-11-25T08:47:56;21.42;;;15.38;;
67564;SDS011;54393;53.556;49.216;2022-11-25T08:50:22;24.35;;;16.50;;
67564;SDS011;54393;53.556;49.216;2022-11-25T08:52:49;23.58;;;15.48;;
67564;SDS011;54393;53.556;49.216;2022-11-25T08:55:15;21.83;;;14.30;;
67564;SDS011;54393;53.556;49.216;2022-11-25T08:57:42;23.33;;;14.43;;
67564;SDS011;54393;53.556;49.216;2022-11-25T09:00:09;20.75;;;14.07;;
67564;SDS011;54393;53.556;49.216;2022-11-25T09:02:36;18.98;;;13.65;;
67564;SDS011;54393;53.556;49.216;2022-11-25T09:05:02;20.42;;;13.75;;
67564;SDS011;54393;53.556;49.216;2022-11-25T09:07:29;22.60;;;13.30;;
67564;SDS011;54393;53.556;49.216;2022-11-25T09:10:01;16.45;;;12.98;;
67564;SDS011;54393;53.556;49.216;2022-11-25T09:12:28;16.30;;;13.07;;
67564;SDS011;54393;53.556;49.216;2022-11-25T09:14:54;22.90;;;13.32;;
67564;SDS011;54393;53.556;49.216;2022-11-25T09:17:20;18.52;;;13.02;;
67564;SDS011;54393;53.556;49.216;2022-11-25T09:19:47;18.23;;;13.20;;
67564;SDS011;54393;53.556;49.216;2022-11-25T09:22:13;22.48;;;12.98;;
67564;SDS011;54393;53.556;49.216;2022-11-25T09:24:40;22.25;;;13.15;;
67564;SDS011;54393;53.556;49.216;2022-11-25T09:27:07;16.50;;;10.95;;
67564;SDS011;54393;53.556;49.216;2022-11-25T09:29:34;21.90;;;11.98;;
67564;SDS011;54393;53.556;49.216;2022-11-25T09:32:00;21.60;;;11.77;;
67564;SDS011;54393;53.556;49.216;2022-11-25T09:34:27;18.95;;;11.82;;
67564;SDS011;54393;53.556;49.216;2022-11-25T09:36:53;17.65;;;11.07;;
67564;SDS011;54393;53.556;49.216;2022-11-25T09:39:20;25.20;;;11.48;;
67564;SDS011;54393;53.556;49.216;2022-11-25T09:45:23;22.90;;;11.90;;
67564;SDS011;54393;53.556;49.216;2022-11-25T09:55:54;20.02;;;11.25;;
67564;SDS011;54393;53.556;49.216;2022-11-25T10:01:04;23.62;;;12.00;;
67564;SDS011;54393;53.556;49.216;2022-11-25T10:08:48;19.73;;;12.45;;
67564;SDS011;54393;53.556;49.216;2022-11-25T10:17:06;25.00;;;13.30;;
67564;SDS011;54393;53.556;49.216;2022-11-25T10:23:04;25.60;;;12.30;;
67564;SDS011;54393;53.556;49.216;2022-11-25T10:25:41;25.80;;;12.48;;
67564;SDS011;54393;53.556;49.216;2022-11-25T10:28:20;18.35;;;12.00;;
67564;SDS011;54393;53.556;49.216;2022-11-25T10:33:46;20.65;;;12.07;;
67564;SDS011;54393;53.556;49.216;2022-11-25T10:36:19;22.65;;;12.77;;
67564;SDS011;54393;53.556;49.216;2022-11-25T10:41:49;22.40;;;12.70;;
67564;SDS011;54393;53.556;49.216;2022-11-25T10:44:34;18.50;;;12.15;;
67564;SDS011;54393;53.556;49.216;2022-11-25T10:52:10;21.58;;;12.43;;
67564;SDS011;54393;53.556;49.216;2022-11-25T10:54:38;17.58;;;12.00;;
67564;SDS011;54393;53.556;49.216;2022-11-25T10:57:18;17.33;;;12.27;;
67564;SDS011;54393;53.556;49.216;2022-11-25T10:59:57;21.02;;;11.85;;
67564;SDS011;54393;53.556;49.216;2022-11-25T11:02:28;16.42;;;12.00;;
67564;SDS011;54393;53.556;49.216;2022-11-25T11:07:38;18.73;;;11.68;;
67564;SDS011;54393;53.556;49.216;2022-11-25T11:12:53;22.83;;;11.73;;
67564;SDS011;54393;53.556;49.216;2022-11-25T11:18:26;17.23;;;11.52;;
67564;SDS011;54393;53.556;49.216;2022-11-25T11:23:45;16.95;;;10.82;;
67564;SDS011;54393;53.556;49.216;2022-11-25T11:31:39;16.58;;;9.93;;
67564;SDS011;54393;53.556;49.216;2022-11-25T11:50:48;12.90;;;9.80;;
67564;SDS011;54393;53.556;49.216;2022-11-25T11:56:55;12.77;;;9.32;;
67564;SDS011;54393;53.556;49.216;2022-11-25T12:07:25;12.10;;;8.77;;
67564;SDS011;54393;53.556;49.216;2022-11-25T12:15:22;12.37;;;9.75;;
67564;SDS011;54393;53.556;49.216;2022-11-25T12:18:15;13.38;;;9.40;;
67564;SDS011;54393;53.556;49.216;2022-11-25T12:20:58;10.65;;;8.60;;
67564;SDS011;54393;53.556;49.216;2022-11-25T12:26:29;12.13;;;8.88;;
67564;SDS011;54393;53.556;49.216;2022-11-25T12:32:04;10.60;;;9.00;;
67564;SDS011;54393;53.556;49.216;2022-11-25T12:34:54;12.35;;;9.25;;
67564;SDS011;54393;53.556;49.216;2022-11-25T12:37:49;11.30;;;10.10;;
67564;SDS011;54393;53.556;49.216;2022-11-25T12:43:07;11.32;;;9.38;;
67564;SDS011;54393;53.556;49.216;2022-11-25T12:45:48;10.68;;;9.30;;
67564;SDS011;54393;53.556;49.216;2022-11-25T12:48:21;13.82;;;9.30;;
67564;SDS011;54393;53.556;49.216;2022-11-25T12:51:01;10.63;;;8.80;;
67564;SDS011;54393;53.556;49.216;2022-11-25T12:56:15;13.02;;;9.65;;
67564;SDS011;54393;53.556;49.216;2022-11-25T12:58:48;11.50;;;9.52;;
67564;SDS011;54393;53.556;49.216;2022-11-25T13:04:34;13.45;;;9.35;;
67564;SDS011;54393;53.556;49.216;2022-11-25T13:16:03;11.90;;;9.77;;
67564;SDS011;54393;53.556;49.216;2022-11-25T13:18:31;11.95;;;9.40;;
67564;SDS011;54393;53.556;49.216;2022-11-25T13:21:06;13.02;;;9.68;;
67564;SDS011;54393;53.556;49.216;2022-11-25T13:28:54;13.93;;;9.90;;
67564;SDS011;54393;53.556;49.216;2022-11-25T13:31:22;13.73;;;9.25;;
67564;SDS011;54393;53.556;49.216;2022-11-25T13:36:42;12.80;;;9.45;;
67564;SDS011;54393;53.556;49.216;2022-11-25T13:39:13;12.63;;;9.15;;
67564;SDS011;54393;53.556;49.216;2022-11-25T13:41:43;10.05;;;8.88;;
67564;SDS011;54393;53.556;49.216;2022-11-25T13:44:17;12.35;;;10.07;;
67564;SDS011;54393;53.556;49.216;2022-11-25T13:46:59;13.23;;;10.57;;
67564;SDS011;54393;53.556;49.216;2022-11-25T13:49:57;13.18;;;9.93;;
67564;SDS011;54393;53.556;49.216;2022-11-25T13:52:38;10.63;;;9.52;;
67564;SDS011;54393;53.556;49.216;2022-11-25T13:55:39;12.00;;;10.38;;
67564;SDS011;54393;53.556;49.216;2022-11-25T14:00:48;11.55;;;9.95;;
67564;SDS011;54393;53.556;49.216;2022-11-25T14:17:03;13.80;;;10.88;;
67564;SDS011;54393;53.556;49.216;2022-11-25T14:23:11;15.43;;;10.68;;
67564;SDS011;54393;53.556;49.216;2022-11-25T14:25:48;13.77;;;10.88;;
67564;SDS011;54393;53.556;49.216;2022-11-25T14:31:04;19.65;;;14.07;;
67564;SDS011;54393;53.556;49.216;2022-11-25T14:33:37;28.00;;;17.25;;
67564;SDS011;54393;53.556;49.216;2022-11-25T14:36:24;22.65;;;16.85;;
67564;SDS011;54393;53.556;49.216;2022-11-25T14:38:57;24.65;;;17.37;;
67564;SDS011;54393;53.556;49.216;2022-11-25T14:41:31;23.17;;;17.08;;
67564;SDS011;54393;53.556;49.216;2022-11-25T14:44:06;21.08;;;17.50;;
67564;SDS011;54393;53.556;49.216;2022-11-25T14:46:52;23.05;;;17.92;;
67564;SDS011;54393;53.556;49.216;2022-11-25T14:49:20;27.60;;;18.45;;
67564;SDS011;54393;53.556;49.216;2022-11-25T14:51:47;25.12;;;17.70;;
67564;SDS011;54393;53.556;49.216;2022-11-25T14:54:15;25.12;;;17.75;;
67564;SDS011;54393;53.556;49.216;2022-11-25T14:56:42;24.02;;;17.58;;
67564;SDS011;54393;53.556;49.216;2022-11-25T14:59:10;22.83;;;16.70;;
67564;SDS011;54393;53.556;49.216;2022-11-25T15:01:37;24.77;;;18.60;;
67564;SDS011;54393;53.556;49.216;2022-11-25T15:04:06;24.48;;;17.35;;
67564;SDS011;54393;53.556;49.216;2022-11-25T15:06:47;23.58;;;17.40;;
67564;SDS011;54393;53.556;49.216;2022-11-25T15:12:04;25.80;;;18.17;;
67564;SDS011;54393;53.556;49.216;2022-11-25T15:14:33;23.50;;;17.65;;
67564;SDS011;54393;53.556;49.216;2022-11-25T15:17:08;23.25;;;18.48;;
67564;SDS011;54393;53.556;49.216;2022-11-25T15:19:47;23.40;;;17.98;;
67564;SDS011;54393;53.556;49.216;2022-11-25T15:22:14;26.17;;;18.15;;
67564;SDS011;54393;53.556;49.216;2022-11-25T15:24:44;20.08;;;17.10;;
67564;SDS011;54393;53.556;49.216;2022-11-25T15:29:44;24.35;;;17.08;;
67564;SDS011;54393;53.556;49.216;2022-11-25T15:32:14;25.30;;;17.35;;
67564;SDS011;54393;53.556;49.216;2022-11-25T15:34:42;22.85;;;16.90;;
67564;SDS011;54393;53.556;49.216;2022-11-25T15:37:10;19.77;;;16.92;;
67564;SDS011;54393;53.556;49.216;2022-11-25T15:39:36;24.10;;;17.40;;
67564;SDS011;54393;53.556;49.216;2022-11-25T15:42:19;22.13;;;16.48;;
67564;SDS011;54393;53.556;49.216;2022-11-25T15:44:58;21.73;;;16.60;;
67564;SDS011;54393;53.556;49.216;2022-11-25T15:47:28;22.52;;;16.55;;
67564;SDS011;54393;53.556;49.216;2022-11-25T15:49:59;20.95;;;16.17;;
67564;SDS011;54393;53.556;49.216;2022-11-25T15:52:32;22.70;;;16.83;;
67564;SDS011;54393;53.556;49.216;2022-11-25T15:55:46;22.08;;;15.70;;
67564;SDS011;54393;53.556;49.216;2022-11-25T15:57:55;19.85;;;15.25;;
67564;SDS011;54393;53.556;49.216;2022-11-25T16:00:27;21.77;;;15.23;;
67564;SDS011;54393;53.556;49.216;2022-11-25T16:02:54;18.30;;;15.63;;
67564;SDS011;54393;53.556;49.216;2022-11-25T16:05:26;21.60;;;15.43;;
67564;SDS011;54393;53.556;49.216;2022-11-25T16:07:57;19.42;;;15.48;;
67564;SDS011;54393;53.556;49.216;2022-11-25T16:21:02;16.35;;;14.25;;
67564;SDS011;54393;53.556;49.216;2022-11-25T16:23:38;20.98;;;14.70;;
67564;SDS011;54393;53.556;49.216;2022-11-25T16:28:36;19.15;;;14.27;;
67564;SDS011;54393;53.556;49.216;2022-11-25T16:31:14;18.83;;;14.07;;
67564;SDS011;54393;53.556;49.216;2022-11-25T16:33:41;17.30;;;13.65;;
67564;SDS011;54393;53.556;49.216;2022-11-25T16:36:07;15.65;;;13.60;;
67564;SDS011;54393;53.556;49.216;2022-11-25T16:38:34;17.83;;;13.95;;
67564;SDS011;54393;53.556;49.216;2022-11-25T16:41:08;16.33;;;13.02;;
67564;SDS011;54393;53.556;49.216;2022-11-25T16:43:38;16.25;;;13.50;;
67564;SDS011;54393;53.556;49.216;2022-11-25T16:46:04;15.93;;;13.27;;
67564;SDS011;54393;53.556;49.216;2022-11-25T16:48:31;17.17;;;13.02;;
67564;SDS011;54393;53.556;49.216;2022-11-25T16:50:57;15.75;;;12.82;;
67564;SDS011;54393;53.556;49.216;2022-11-25T16:53:24;16.23;;;12.77;;
67564;SDS011;54393;53.556;49.216;2022-11-25T16:55:51;16.92;;;12.23;;
67564;SDS011;54393;53.556;49.216;2022-11-25T16:58:18;16.15;;;12.02;;
67564;SDS011;54393;53.556;49.216;2022-11-25T17:00:50;13.70;;;11.70;;
67564;SDS011;54393;53.556;49.216;2022-11-25T17:03:18;13.62;;;11.23;;
67564;SDS011;54393;53.556;49.216;2022-11-25T17:05:46;13.75;;;12.27;;
67564;SDS011;54393;53.556;49.216;2022-11-25T17:08:12;13.85;;;11.45;;
67564;SDS011;54393;53.556;49.216;2022-11-25T17:10:42;13.70;;;11.10;;
67564;SDS011;54393;53.556;49.216;2022-11-25T17:13:14;12.43;;;11.02;;
67564;SDS011;54393;53.556;49.216;2022-11-25T17:15:42;15.35;;;11.98;;
67564;SDS011;54393;53.556;49.216;2022-11-25T17:18:09;16.23;;;11.50;;
67564;SDS011;54393;53.556;49.216;2022-11-25T17:20:37;12.15;;;10.48;;
67564;SDS011;54393;53.556;49.216;2022-11-25T17:23:08;13.57;;;10.98;;
67564;SDS011;54393;53.556;49.216;2022-11-25T17:25:37;11.75;;;10.15;;
67564;SDS011;54393;53.556;49.216;2022-11-25T17:28:03;14.10;;;10.90;;
67564;SDS011;54393;53.556;49.216;2022-11-25T17:30:30;12.93;;;10.25;;
67564;SDS011;54393;53.556;49.216;2022-11-25T17:32:57;11.43;;;10.18;;
67564;SDS011;54393;53.556;49.216;2022-11-25T17:35:29;13.48;;;10.35;;
67564;SDS011;54393;53.556;49.216;2022-11-25T17:37:58;14.05;;;10.18;;
67564;SDS011;54393;53.556;49.216;2022-11-25T17:40:25;11.70;;;9.40;;